Time;durP1;ratioP1;P1;durP2;ratioP2;P2;SDS_P1;SDS_P2;PMS_P1;PMS_P2;Temp;Humidity;BMP_temperature;BMP_pressure;BME280_temperature;BME280_humidity;BME280_pressure;Samples;Min_cycle;Max_cycle;Signal;HPM_P1;HPM_P2
2024/04/05 00:00:19;;;;;;;20.67;6.20;;;11.80;99.90;;;17.15;58.05;99143.28;5072166;28;20075;-80
2024/04/05 00:02:49;;;;;;;26.02;6.90;;;11.80;99.90;;;17.10;58.17;99144.53;5072394;28;20518;-80
2024/04/05 00:05:15;;;;;;;20.10;6.47;;;11.70;99.90;;;17.10;58.26;99149.84;5071700;28;20091;-80
2024/04/05 00:07:43;;;;;;;21.45;8.30;;;11.70;99.90;;;17.08;58.14;99145.69;5071801;28;20044;-79
2024/04/05 00:10:09;;;;;;;25.30;8.32;;;11.70;99.90;;;17.02;58.08;99154.22;5071267;28;20048;-80
2024/04/05 00:12:38;;;;;;;22.27;7.70;;;11.70;99.90;;;16.96;58.35;99157.41;5070217;28;20048;-80
2024/04/05 00:15:07;;;;;;;20.25;6.60;;;11.60;99.90;;;16.93;58.41;99155.06;5070670;28;20123;-79
2024/04/05 00:17:34;;;;;;;16.80;6.80;;;11.60;99.90;;;16.92;58.56;99154.25;5065735;28;20049;-79
2024/04/05 00:20:01;;;;;;;19.63;7.80;;;11.60;99.90;;;16.93;58.51;99150.63;5050719;28;20049;-79
2024/04/05 00:22:29;;;;;;;20.17;6.85;;;11.60;99.90;;;16.94;58.48;99154.09;5061745;28;20040;-81
2024/04/05 00:24:57;;;;;;;23.02;7.85;;;11.60;99.90;;;16.94;58.46;99141.72;5071710;28;20076;-79
2024/04/05 00:27:24;;;;;;;19.80;7.82;;;11.60;99.90;;;16.93;58.46;99136.56;5071377;28;20498;-80
2024/04/05 00:29:52;;;;;;;22.27;7.40;;;11.50;99.90;;;16.89;58.93;99141.31;5069915;28;20040;-79
2024/04/05 00:32:19;;;;;;;26.10;7.28;;;11.50;99.90;;;16.86;58.59;99140.78;5063606;28;20129;-78
2024/04/05 00:34:46;;;;;;;26.83;8.90;;;11.50;99.90;;;16.87;58.42;99145.06;5070928;28;20484;-78
2024/04/05 00:37:14;;;;;;;16.25;6.13;;;11.50;99.90;;;16.86;58.47;99138.94;5071057;28;20055;-77
2024/04/05 00:39:41;;;;;;;18.50;6.78;;;11.40;99.90;;;16.87;58.21;99142.44;5053897;28;20179;-78
2024/04/05 00:42:08;;;;;;;16.83;7.05;;;11.40;99.90;;;16.86;58.46;99136.31;5051544;28;20037;-78
2024/04/05 00:44:35;;;;;;;23.85;7.97;;;11.40;99.90;;;16.88;58.28;99128.25;5070314;28;20083;-77
2024/04/05 00:47:04;;;;;;;24.65;10.77;;;11.50;99.90;;;16.90;58.30;99137.69;5056913;28;20053;-78
2024/04/05 00:49:31;;;;;;;24.30;9.45;;;11.40;99.90;;;16.89;58.51;99136.00;5066659;28;20094;-78
2024/04/05 00:52:01;;;;;;;22.05;10.45;;;11.40;99.90;;;16.88;58.47;99130.88;5079509;28;20090;-77
2024/04/05 00:54:27;;;;;;;23.67;8.95;;;11.30;99.90;;;16.83;58.57;99122.53;5090934;28;20126;-78
2024/04/05 00:56:58;;;;;;;19.73;7.95;;;11.30;99.90;;;16.77;58.37;99128.41;5090950;28;20519;-77
2024/04/05 00:59:27;;;;;;;21.85;7.63;;;11.30;99.90;;;16.66;58.34;99134.75;5058121;28;20095;-77
2024/04/05 01:01:54;;;;;;;18.48;7.68;;;11.20;99.90;;;16.56;58.64;99134.75;5070727;28;20068;-78
2024/04/05 01:04:23;;;;;;;24.45;7.28;;;11.20;99.90;;;16.49;58.75;99124.91;5077575;28;20453;-77
2024/04/05 01:06:51;;;;;;;28.42;8.75;;;11.10;99.90;;;16.43;58.93;99122.84;5091009;28;20082;-77
2024/04/05 01:09:19;;;;;;;22.52;7.80;;;11.00;99.90;;;16.34;59.10;99123.69;5070325;28;20119;-78
2024/04/05 01:11:56;;;;;;;19.85;7.97;;;11.00;99.90;;;16.15;59.31;99121.94;5070704;28;20099;-79
2024/04/05 01:14:22;;;;;;;18.35;7.72;;;10.90;99.90;;;16.17;59.53;99122.59;5070469;28;20506;-82
2024/04/05 01:16:50;;;;;;;22.27;8.70;;;10.90;99.90;;;16.13;59.59;99128.34;5071490;28;20126;-81
2024/04/05 01:19:17;;;;;;;24.90;9.27;;;10.90;99.90;;;16.02;59.77;99124.88;5071369;28;20045;-81
2024/04/05 01:21:50;;;;;;;30.45;9.93;;;10.80;99.90;;;15.95;59.88;99126.41;5071049;28;20129;-81
2024/04/05 01:24:18;;;;;;;27.02;11.18;;;10.80;99.90;;;15.92;60.11;99129.34;5071205;28;20049;-80
2024/04/05 01:26:46;;;;;;;23.05;10.43;;;10.80;99.90;;;15.86;60.21;99121.16;5069452;28;20615;-79
2024/04/05 01:29:12;;;;;;;23.20;8.68;;;10.70;99.90;;;15.87;60.35;99126.28;5070219;28;20048;-80
2024/04/05 01:31:40;;;;;;;24.42;8.75;;;10.70;99.90;;;15.87;60.40;99115.72;5053993;28;20072;-78
2024/04/05 01:34:06;;;;;;;31.67;10.00;;;10.70;99.90;;;15.89;60.33;99126.16;5063897;28;20049;-79
2024/04/05 01:36:34;;;;;;;33.50;11.88;;;10.70;99.90;;;15.89;60.35;99131.41;5070293;28;20094;-79
2024/04/05 01:39:00;;;;;;;38.90;16.25;;;10.70;99.90;;;15.89;60.46;99136.69;5071530;28;20383;-78
2024/04/05 01:41:29;;;;;;;39.55;16.77;;;10.70;99.90;;;15.87;60.46;99131.53;5062390;28;20045;-79
2024/04/05 01:43:57;;;;;;;38.28;16.45;;;10.70;99.90;;;15.83;60.87;99130.19;5057836;28;20052;-78
2024/04/05 01:46:24;;;;;;;41.22;17.17;;;10.60;99.90;;;15.80;60.54;99134.91;5058592;28;20087;-78
2024/04/05 01:48:51;;;;;;;32.85;13.10;;;10.60;99.90;;;15.77;61.05;99136.03;5071322;28;20086;-79
2024/04/05 01:51:18;;;;;;;27.65;11.52;;;10.60;99.90;;;15.78;60.96;99135.03;5070381;28;20094;-78
2024/04/05 01:53:45;;;;;;;27.83;12.35;;;10.60;99.90;;;15.77;60.98;99125.47;5069952;28;20764;-78
2024/04/05 01:56:12;;;;;;;42.28;13.63;;;10.60;99.90;;;15.77;60.92;99136.03;5069937;28;20443;-78
2024/04/05 01:58:42;;;;;;;37.25;15.60;;;10.50;99.90;;;15.69;60.95;99129.75;5053309;28;20227;-79
2024/04/05 02:01:09;;;;;;;31.00;13.07;;;10.50;99.90;;;15.67;61.32;99137.00;5069968;28;20127;-77
2024/04/05 02:03:37;;;;;;;33.15;12.95;;;10.50;99.90;;;15.66;61.03;99132.69;5069928;28;20136;-78
2024/04/05 02:06:13;;;;;;;30.25;16.67;;;10.50;99.90;;;15.61;60.92;99127.00;5068607;28;20283;-78
2024/04/05 02:08:40;;;;;;;36.67;19.05;;;10.40;99.90;;;15.65;61.08;99126.56;5064412;28;20049;-79
2024/04/05 02:11:07;;;;;;;42.20;22.70;;;10.40;99.90;;;15.66;61.14;99132.69;5049645;28;20049;-78
2024/04/05 02:13:34;;;;;;;34.10;22.08;;;10.40;99.90;;;15.62;61.07;99132.13;5074073;28;20127;-80
2024/04/05 02:16:03;;;;;;;37.92;19.38;;;10.40;99.90;;;15.57;60.87;99135.19;5092951;28;20130;-78
2024/04/05 02:18:29;;;;;;;30.55;18.05;;;10.30;99.90;;;15.54;61.06;99135.44;5093765;28;20442;-79
2024/04/05 02:20:58;;;;;;;31.40;15.32;;;10.30;99.90;;;15.52;61.30;99139.19;5086937;28;20047;-79
2024/04/05 02:23:25;;;;;;;25.88;12.10;;;10.30;99.90;;;15.51;61.32;99141.00;5073080;28;20044;-78
2024/04/05 02:25:52;;;;;;;32.30;12.00;;;10.30;99.90;;;15.53;61.09;99140.88;5072027;28;20037;-78
2024/04/05 02:28:19;;;;;;;21.48;10.55;;;10.30;99.90;;;15.52;60.90;99136.56;5056493;28;20040;-78
2024/04/05 02:30:46;;;;;;;25.52;12.10;;;10.30;99.90;;;15.54;61.21;99150.47;5063899;28;20131;-76
2024/04/05 02:33:14;;;;;;;22.30;10.43;;;10.20;99.90;;;15.56;60.91;99151.16;5071968;28;20107;-78
2024/04/05 02:35:42;;;;;;;28.60;11.60;;;10.20;99.90;;;15.56;61.17;99145.88;5073262;28;20139;-77
2024/04/05 02:38:08;;;;;;;27.77;11.77;;;10.20;99.90;;;15.56;61.01;99144.06;5072646;28;20115;-78
2024/04/05 02:40:36;;;;;;;37.67;11.82;;;10.20;99.90;;;15.54;60.92;99148.63;5072470;28;20044;-79
2024/04/05 02:43:03;;;;;;;26.77;11.73;;;10.20;99.90;;;15.53;61.08;99160.19;5063377;28;20119;-78
2024/04/05 02:45:31;;;;;;;26.27;10.05;;;10.10;99.90;;;15.56;61.15;99164.34;5072787;28;20048;-79
2024/04/05 02:47:57;;;;;;;29.92;11.63;;;10.10;99.90;;;15.52;61.21;99160.31;5073687;28;20119;-79
2024/04/05 02:50:26;;;;;;;32.22;12.80;;;10.10;99.90;;;15.56;61.14;99166.97;5073763;28;20079;-78
2024/04/05 02:52:53;;;;;;;30.05;12.35;;;10.10;99.90;;;15.52;61.35;99157.66;5072177;28;20127;-79
2024/04/05 02:55:20;;;;;;;28.40;10.07;;;10.10;99.90;;;15.45;61.22;99153.88;5083678;28;20048;-78
2024/04/05 02:57:47;;;;;;;29.48;11.00;;;10.00;99.90;;;15.41;61.31;99152.50;5071892;28;20072;-78
2024/04/05 03:00:15;;;;;;;31.23;13.52;;;10.00;99.90;;;15.41;61.46;99158.59;5071175;28;20498;-79
2024/04/05 03:02:41;;;;;;;28.23;14.90;;;10.00;99.90;;;15.30;61.48;99161.38;5065422;28;20523;-78
2024/04/05 03:05:09;;;;;;;38.22;14.07;;;10.00;99.90;;;15.24;61.65;99161.91;5071134;28;20539;-78
2024/04/05 03:07:37;;;;;;;31.60;12.75;;;9.90;99.90;;;15.12;61.80;99167.41;5070484;28;20055;-78
2024/04/05 03:10:05;;;;;;;33.85;12.65;;;9.90;99.90;;;15.07;61.98;99159.91;5071145;28;20083;-79
2024/04/05 03:12:32;;;;;;;26.08;10.38;;;9.90;99.90;;;15.07;62.31;99165.19;5070686;28;20131;-78
2024/04/05 03:15:01;;;;;;;30.35;11.52;;;9.90;99.90;;;15.06;62.40;99171.44;5069934;28;20549;-79
2024/04/05 03:17:28;;;;;;;27.40;10.48;;;9.90;99.90;;;15.08;62.00;99170.31;5070241;28;20037;-79
2024/04/05 03:19:55;;;;;;;24.48;9.70;;;9.90;99.90;;;15.12;62.20;99172.69;5070626;28;20127;-79
2024/04/05 03:22:22;;;;;;;26.40;10.30;;;9.90;99.90;;;15.16;61.98;99168.81;5068542;28;20049;-78
2024/04/05 03:24:51;;;;;;;21.83;9.65;;;9.90;99.90;;;15.19;62.06;99168.53;5070205;28;20088;-78
2024/04/05 03:27:18;;;;;;;26.70;10.27;;;9.90;99.90;;;15.20;62.04;99163.16;5069312;28;20076;-79
2024/04/05 03:29:45;;;;;;;23.48;10.15;;;9.90;99.90;;;15.19;61.90;99165.91;5071327;28;20127;-78
2024/04/05 03:32:13;;;;;;;28.42;10.02;;;9.90;99.90;;;15.16;62.10;99172.28;5091050;28;20079;-79
2024/04/05 03:34:40;;;;;;;26.88;8.90;;;9.90;99.90;;;15.17;62.15;99183.69;5081829;28;20109;-79
2024/04/05 03:37:08;;;;;;;33.15;10.10;;;9.90;99.90;;;15.20;61.99;99172.84;5070277;28;20049;-79
2024/04/05 03:39:36;;;;;;;26.02;10.00;;;9.80;99.90;;;15.19;61.93;99181.72;5070357;28;20127;-79
2024/04/05 03:42:04;;;;;;;38.05;11.52;;;9.90;99.90;;;15.18;62.14;99172.16;5068737;28;20045;-77
2024/04/05 03:44:33;;;;;;;27.45;11.43;;;9.90;99.90;;;15.18;61.81;99172.16;5059990;28;20129;-78
2024/04/05 03:47:00;;;;;;;31.15;13.32;;;9.80;99.90;;;15.12;62.34;99164.78;5070085;28;20068;-77
2024/04/05 03:49:28;;;;;;;33.78;14.80;;;9.80;99.90;;;14.98;62.48;99161.53;5069441;28;20072;-77
2024/04/05 03:51:55;;;;;;;32.63;14.27;;;9.80;99.90;;;14.92;62.54;99163.88;5069416;28;20103;-77
2024/04/05 03:54:23;;;;;;;31.75;13.38;;;9.80;99.90;;;14.85;63.16;99168.03;5069206;28;20048;-78
2024/04/05 03:56:49;;;;;;;28.33;12.68;;;9.80;99.90;;;14.79;63.29;99156.22;5067831;28;20064;-77
2024/04/05 03:59:18;;;;;;;31.48;11.20;;;9.70;99.90;;;14.75;63.34;99144.25;5066848;28;20122;-78
2024/04/05 04:01:45;;;;;;;22.58;9.63;;;9.70;99.90;;;14.75;63.25;99140.81;5080695;28;20554;-77
2024/04/05 04:04:12;;;;;;;26.63;9.10;;;9.70;99.90;;;14.73;63.15;99137.47;5099835;28;20079;-77
2024/04/05 04:06:57;;;;;;;24.05;8.70;;;9.60;99.90;;;14.71;63.21;99144.69;5069415;28;20084;-78
2024/04/05 04:09:25;;;;;;;20.67;8.30;;;9.60;99.90;;;14.69;63.04;99151.84;5069331;28;20132;-78
2024/04/05 04:11:51;;;;;;;19.33;8.90;;;9.50;99.90;;;14.72;62.99;99157.69;5069854;28;20047;-78
2024/04/05 04:14:20;;;;;;;25.92;9.07;;;9.60;99.90;;;14.76;63.22;99174.09;5084099;28;20135;-77
2024/04/05 04:16:47;;;;;;;22.10;8.63;;;9.60;99.90;;;14.81;62.54;99185.91;5069002;28;20437;-78
2024/04/05 04:19:14;;;;;;;20.70;9.10;;;9.60;99.90;;;14.86;62.63;99183.69;5068030;28;20086;-78
2024/04/05 04:21:41;;;;;;;20.45;7.97;;;9.60;99.90;;;14.92;62.92;99180.53;5052998;28;20087;-79
2024/04/05 04:24:09;;;;;;;23.10;9.10;;;9.60;99.90;;;14.93;62.57;99192.75;5069053;28;20051;-79
2024/04/05 04:26:36;;;;;;;22.75;8.88;;;9.60;99.90;;;14.98;62.55;99205.53;5069144;28;20080;-77
2024/04/05 04:29:04;;;;;;;21.50;8.55;;;9.60;99.90;;;14.99;62.68;99213.31;5069131;28;20105;-79
2024/04/05 04:31:32;;;;;;;29.88;13.35;;;9.70;99.90;;;15.04;62.78;99219.03;5068031;28;20045;-78
2024/04/05 04:34:00;;;;;;;25.60;10.63;;;9.70;99.90;;;15.03;62.77;99219.97;5068340;28;20052;-78
2024/04/05 04:36:26;;;;;;;25.45;10.55;;;9.70;99.90;;;15.04;62.29;99218.19;5068978;28;20166;-78
2024/04/05 04:38:54;;;;;;;24.90;10.48;;;9.70;99.90;;;15.01;62.79;99218.47;5066467;28;20480;-77
2024/04/05 04:41:21;;;;;;;22.25;8.98;;;9.70;99.90;;;15.01;62.79;99206.13;5069868;28;20044;-79
2024/04/05 04:43:48;;;;;;;23.92;10.45;;;9.70;99.90;;;15.01;62.89;99202.63;5068545;28;20057;-80
2024/04/05 04:46:15;;;;;;;23.38;10.70;;;9.70;99.90;;;14.97;62.89;99199.44;5070541;28;20127;-80
2024/04/05 04:48:44;;;;;;;25.30;9.68;;;9.70;99.90;;;14.98;63.05;99216.91;5070627;28;20127;-82
2024/04/05 04:51:11;;;;;;;21.70;8.80;;;9.70;99.90;;;14.99;63.24;99207.19;5071172;28;20124;-84
2024/04/05 04:53:39;;;;;;;22.65;8.82;;;9.70;99.90;;;14.98;63.20;99209.00;5070969;28;20476;-82
2024/04/05 04:56:06;;;;;;;24.20;9.00;;;9.70;99.90;;;15.01;62.78;99211.38;5070383;28;20509;-81
2024/04/05 04:58:34;;;;;;;25.90;9.57;;;9.70;99.90;;;14.96;63.26;99200.38;5070585;28;20048;-81
2024/04/05 05:01:01;;;;;;;27.95;8.02;;;9.70;99.90;;;15.00;63.00;99203.59;5075404;28;20135;-82
2024/04/05 05:03:28;;;;;;;20.40;7.90;;;9.70;99.90;;;15.00;62.96;99200.97;5092177;28;20123;-80
2024/04/05 05:05:56;;;;;;;26.52;9.02;;;9.70;99.90;;;15.01;63.11;99200.84;5093255;28;20052;-82
2024/04/05 05:08:24;;;;;;;21.15;8.45;;;9.70;99.90;;;15.04;62.85;99207.66;5087297;28;20040;-82
2024/04/05 05:10:50;;;;;;;18.67;7.82;;;9.70;99.90;;;15.05;62.78;99212.75;5073847;28;20045;-83
2024/04/05 05:13:18;;;;;;;27.40;8.55;;;9.70;99.90;;;15.04;62.58;99199.72;5073196;28;20080;-81
2024/04/05 05:15:45;;;;;;;19.85;8.70;;;9.70;99.90;;;15.09;62.61;99208.06;5072369;28;20489;-81
2024/04/05 05:18:13;;;;;;;30.23;9.63;;;9.80;99.90;;;15.11;62.72;99203.50;5072121;28;20041;-82
2024/04/05 05:20:46;;;;;;;24.65;9.95;;;9.80;99.90;;;15.10;62.74;99222.09;5052489;28;20056;-81
2024/04/05 05:23:15;;;;;;;25.13;9.38;;;9.80;99.90;;;15.10;62.70;99216.81;5053202;28;20045;-81
2024/04/05 05:25:44;;;;;;;26.02;8.52;;;9.80;99.90;;;15.08;62.35;99230.94;5036425;28;20496;-81
2024/04/05 05:28:12;;;;;;;21.98;8.23;;;9.80;99.90;;;15.04;62.41;99228.72;5071166;28;20732;-81
2024/04/05 05:30:39;;;;;;;24.75;9.57;;;9.80;99.90;;;14.99;62.67;99244.94;5071997;28;20116;-81
2024/04/05 05:33:09;;;;;;;26.92;10.57;;;9.90;99.90;;;14.97;62.79;99227.59;5071813;28;20037;-82
2024/04/05 05:35:36;;;;;;;32.67;11.23;;;9.80;99.90;;;14.98;62.92;99237.19;5071456;28;20101;-82
2024/04/05 05:38:04;;;;;;;24.80;10.93;;;9.90;99.90;;;15.01;62.95;99231.63;5070652;28;20044;-80
2024/04/05 05:40:32;;;;;;;25.85;10.38;;;10.00;99.90;;;15.03;62.74;99234.97;5071066;28;20044;-80
2024/04/05 05:42:59;;;;;;;29.38;10.85;;;10.00;99.90;;;15.07;62.79;99237.22;5071458;28;20083;-79
2024/04/05 05:45:26;;;;;;;24.50;8.73;;;10.10;99.90;;;15.14;62.79;99237.53;5072309;28;20054;-81
2024/04/05 05:47:54;;;;;;;23.58;8.20;;;10.20;99.90;;;15.21;62.75;99243.94;5055347;28;20095;-81
2024/04/05 05:50:23;;;;;;;22.42;10.02;;;10.30;99.90;;;15.30;62.55;99258.09;5053431;28;20437;-82
2024/04/05 05:52:52;;;;;;;27.13;9.95;;;10.40;99.90;;;15.34;62.73;99270.06;5058782;28;20060;-81
2024/04/05 05:55:22;;;;;;;20.55;7.97;;;10.50;99.90;;;15.36;62.55;99268.97;5055993;28;20076;-82
2024/04/05 05:57:51;;;;;;;22.10;7.60;;;10.60;99.90;;;15.40;62.80;99274.81;5072213;28;20060;-81
2024/04/05 06:00:18;;;;;;;23.38;7.72;;;10.70;99.90;;;15.44;62.67;99271.75;5075457;28;20052;-81
2024/04/05 06:02:45;;;;;;;23.13;7.53;;;10.80;99.90;;;15.51;62.94;99266.81;5075459;28;20074;-82
2024/04/05 06:05:12;;;;;;;25.10;8.77;;;10.90;99.90;;;15.59;62.86;99261.69;5075562;28;20135;-83
2024/04/05 06:07:41;;;;;;;16.95;7.07;;;11.00;99.90;;;15.64;62.81;99270.06;5075055;28;20048;-82
2024/04/05 06:10:08;;;;;;;18.63;7.60;;;11.10;99.90;;;15.70;62.98;99280.06;5075137;28;20048;-81
2024/04/05 06:12:39;;;;;;;25.80;8.35;;;11.20;99.90;;;15.73;63.04;99266.59;5075394;28;20048;-81
2024/04/05 06:15:07;;;;;;;19.17;6.78;;;11.20;99.90;;;15.80;62.80;99280.09;5061829;28;20044;-80
2024/04/05 06:17:36;;;;;;;19.08;6.75;;;11.30;99.90;;;15.83;62.81;99270.09;5060926;28;20091;-80
2024/04/05 06:20:06;;;;;;;24.73;7.28;;;11.30;99.90;;;15.88;62.97;99270.50;5072445;28;20080;-81
2024/04/05 06:22:34;;;;;;;21.25;7.53;;;11.40;99.90;;;15.93;62.98;99273.56;5075371;28;20494;-81
2024/04/05 06:25:02;;;;;;;19.75;8.18;;;11.40;99.90;;;16.00;62.40;99273.88;5058283;28;20044;-81
2024/04/05 06:27:29;;;;;;;34.22;9.43;;;11.50;99.90;;;16.09;62.55;99275.66;5075010;28;20074;-82
2024/04/05 06:29:56;;;;;;;22.02;9.13;;;11.50;99.90;;;16.06;62.52;99262.75;5074634;28;20105;-80
2024/04/05 06:32:25;;;;;;;27.15;10.88;;;11.50;99.90;;;16.10;62.53;99275.50;5074926;28;20159;-81
2024/04/05 06:34:52;;;;;;;32.92;11.57;;;11.60;99.90;;;16.14;62.52;99285.78;5060009;28;20049;-80
2024/04/05 06:37:20;;;;;;;27.33;10.05;;;11.60;99.90;;;16.19;62.54;99291.50;5075888;28;20128;-82
2024/04/05 06:39:47;;;;;;;26.90;10.40;;;11.70;99.90;;;16.30;62.46;99297.47;5078092;28;20551;-81
2024/04/05 06:42:15;;;;;;;28.95;10.13;;;11.90;99.90;;;16.43;62.52;99297.22;5078452;28;20049;-81
2024/04/05 06:44:42;;;;;;;23.55;10.57;;;12.10;99.90;;;16.63;62.18;99301.53;5077841;28;20082;-81
2024/04/05 06:47:11;;;;;;;29.80;10.10;;;12.40;99.90;;;16.81;61.80;99313.06;5077957;28;20084;-82
2024/04/05 06:49:39;;;;;;;27.15;10.43;;;12.50;99.90;;;16.94;61.78;99313.59;5078649;28;20044;-81
2024/04/05 06:52:08;;;;;;;25.90;9.35;;;12.70;99.90;;;17.02;61.64;99305.78;5078207;28;20105;-81
2024/04/05 06:54:42;;;;;;;25.85;10.18;;;12.70;99.90;;;17.11;61.78;99304.09;5080132;28;20076;-82
2024/04/05 06:57:10;;;;;;;28.88;9.75;;;13.00;99.90;;;17.29;61.64;99302.34;5062097;28;20501;-81
2024/04/05 06:59:37;;;;;;;29.63;9.98;;;13.30;99.90;;;17.50;61.38;99318.00;5079365;28;20045;-82
2024/04/05 07:02:06;;;;;;;25.98;9.38;;;13.60;99.90;;;17.69;61.28;99311.81;5077978;28;20041;-81
2024/04/05 07:04:33;;;;;;;27.52;10.25;;;13.60;99.90;;;17.86;60.92;99321.59;5088587;28;20099;-80
2024/04/05 07:07:02;;;;;;;29.45;9.23;;;13.80;99.90;;;18.01;60.37;99313.00;5101494;28;20044;-81
2024/04/05 07:09:29;;;;;;;23.95;7.88;;;13.90;99.90;;;18.21;60.35;99320.84;5084548;28;20063;-81
2024/04/05 07:11:58;;;;;;;24.58;7.53;;;14.30;99.90;;;18.44;60.16;99322.06;5076456;28;20135;-81
2024/04/05 07:14:24;;;;;;;18.60;5.72;;;14.60;99.90;;;18.57;59.57;99318.03;5058292;28;20048;-81
2024/04/05 07:16:53;;;;;;;16.70;3.95;;;14.80;99.90;;;18.71;59.26;99324.63;5074505;28;20631;-81
2024/04/05 07:19:19;;;;;;;17.55;4.70;;;14.80;99.90;;;18.81;59.18;99329.81;5074620;28;20136;-81
2024/04/05 07:21:47;;;;;;;27.73;3.83;;;15.00;99.90;;;18.89;59.14;99327.25;5058045;28;20037;-81
2024/04/05 07:24:15;;;;;;;12.70;3.40;;;15.10;99.90;;;19.05;58.82;99324.69;5074110;28;20083;-81
2024/04/05 07:26:44;;;;;;;19.40;3.58;;;15.30;99.90;;;19.11;58.38;99327.56;5057393;28;20050;-81
2024/04/05 07:29:11;;;;;;;19.52;4.05;;;15.10;99.90;;;19.13;58.01;99328.22;5057395;28;20040;-81
2024/04/05 07:31:38;;;;;;;14.00;3.95;;;15.10;99.90;;;19.13;58.18;99330.88;5073833;28;20088;-82
2024/04/05 07:34:06;;;;;;;15.48;3.20;;;15.20;99.90;;;19.27;58.28;99329.47;5074053;28;20171;-81
2024/04/05 07:36:34;;;;;;;13.45;3.10;;;15.50;99.90;;;19.50;57.92;99332.44;5074515;28;20482;-82
2024/04/05 07:39:03;;;;;;;16.55;3.75;;;15.80;99.90;;;19.71;57.38;99343.53;5073480;28;20402;-80
2024/04/05 07:41:32;;;;;;;14.40;3.05;;;16.10;99.90;;;19.97;57.01;99338.97;5073884;28;20080;-82
2024/04/05 07:43:59;;;;;;;11.80;2.65;;;16.30;99.90;;;20.07;56.69;99342.31;5065565;28;20106;-80
2024/04/05 07:46:27;;;;;;;11.40;2.53;;;16.40;99.90;;;20.29;56.14;99340.06;5073307;28;20041;-81
2024/04/05 07:48:54;;;;;;;16.85;3.72;;;16.70;99.90;;;20.41;55.63;99331.63;5073089;28;20045;-82
2024/04/05 07:51:22;;;;;;;11.13;3.28;;;16.60;99.90;;;20.50;55.25;99337.78;5056937;28;20055;-81
2024/04/05 07:53:48;;;;;;;16.70;3.50;;;16.70;99.90;;;20.63;55.14;99338.94;5093428;28;20041;-80
2024/04/05 07:56:16;;;;;;;11.05;3.00;;;16.80;99.90;;;20.73;54.80;99333.47;5093562;28;20047;-81
2024/04/05 07:58:44;;;;;;;13.75;3.50;;;16.90;99.90;;;20.84;54.73;99329.63;5093208;28;20048;-81
2024/04/05 08:01:12;;;;;;;15.65;3.92;;;17.00;99.90;;;20.91;54.08;99335.97;5087784;28;20134;-81
2024/04/05 08:03:39;;;;;;;18.65;4.03;;;16.90;99.90;;;20.98;53.87;99339.59;5073284;28;20124;-80
2024/04/05 08:06:07;;;;;;;14.35;3.55;;;16.90;99.90;;;21.01;53.41;99337.41;5073339;28;20052;-81
2024/04/05 08:08:34;;;;;;;16.10;3.67;;;16.90;99.90;;;21.03;53.34;99340.75;5073418;28;20119;-81
2024/04/05 08:11:02;;;;;;;14.23;3.53;;;16.80;99.90;;;21.02;53.18;99333.78;5056440;28;20091;-81
2024/04/05 08:13:28;;;;;;;14.45;3.47;;;16.80;99.90;;;21.07;53.05;99339.44;5072954;28;20088;-81
2024/04/05 08:15:58;;;;;;;16.38;3.53;;;16.90;99.90;;;21.08;53.05;99349.06;5072668;28;20080;-81
2024/04/05 08:18:24;;;;;;;13.50;4.22;;;17.00;99.90;;;21.06;53.48;99337.75;5072902;28;20048;-81
2024/04/05 08:20:52;;;;;;;14.00;3.28;;;17.10;99.90;;;21.13;53.10;99340.63;5072823;28;20170;-80
2024/04/05 08:23:18;;;;;;;15.95;3.15;;;17.20;99.90;;;21.28;52.79;99340.75;5072413;28;20124;-82
2024/04/05 08:25:46;;;;;;;11.25;2.92;;;17.40;99.90;;;21.42;52.56;99356.03;5072636;28;20849;-81
2024/04/05 08:28:12;;;;;;;17.05;3.58;;;17.60;99.90;;;21.52;52.46;99360.16;5072679;28;20120;-80
2024/04/05 08:30:40;;;;;;;12.40;3.92;;;17.60;99.90;;;21.59;52.29;99360.31;5070562;28;20068;-80
2024/04/05 08:33:09;;;;;;;16.83;4.53;;;17.60;99.90;;;21.59;51.96;99358.47;5053102;28;20096;-80
2024/04/05 08:35:37;;;;;;;14.85;3.47;;;17.50;99.90;;;21.59;51.80;99361.16;5069566;28;20064;-81
2024/04/05 08:38:05;;;;;;;16.30;3.75;;;17.30;99.90;;;21.56;51.57;99363.31;5053028;28;20053;-81
2024/04/05 08:40:33;;;;;;;14.25;4.32;;;17.10;99.90;;;21.49;51.54;99381.00;5069009;28;20059;-80
2024/04/05 08:43:01;;;;;;;16.55;3.88;;;17.00;99.90;;;21.43;51.62;99384.34;5072867;28;20517;-80
2024/04/05 08:45:32;;;;;;;15.68;3.78;;;17.00;99.90;;;21.44;51.79;99381.47;5075412;28;20330;-81
2024/04/05 08:48:04;;;;;;;14.45;3.70;;;17.20;99.90;;;21.54;51.52;99379.47;5073909;28;20056;-81
2024/04/05 08:50:36;;;;;;;13.70;3.92;;;17.40;99.90;;;21.66;51.36;99379.94;5056645;28;20091;-81
2024/04/05 08:53:04;;;;;;;15.00;3.20;;;17.50;99.90;;;21.71;51.23;99383.75;5073461;28;20447;-81
2024/04/05 08:55:33;;;;;;;19.13;3.92;;;17.60;99.90;;;21.73;50.99;99384.41;5072920;28;20063;-82
2024/04/05 08:58:02;;;;;;;14.95;3.15;;;17.40;99.90;;;21.77;51.16;99382.22;5055421;28;20044;-82
2024/04/05 09:00:30;;;;;;;18.40;2.92;;;17.60;99.90;;;21.86;50.67;99381.22;5072326;28;20127;-81
2024/04/05 09:03:00;;;;;;;17.70;3.83;;;17.70;98.80;;;21.91;50.87;99384.22;5073319;28;20132;-81
2024/04/05 09:05:28;;;;;;;15.27;2.78;;;17.70;99.40;;;21.90;50.70;99387.88;5073735;28;20053;-81
2024/04/05 09:08:05;;;;;;;14.82;2.17;;;17.70;98.50;;;21.87;50.48;99380.19;5072170;28;20049;-81
2024/04/05 09:10:33;;;;;;;11.38;2.47;;;17.60;98.30;;;21.89;50.28;99374.69;5052559;28;20120;-80
2024/04/05 09:13:04;;;;;;;14.18;2.50;;;17.70;98.90;;;21.99;50.09;99386.84;5063882;28;20467;-80
2024/04/05 09:15:32;;;;;;;17.58;3.25;;;17.80;97.50;;;22.04;50.14;99384.47;5073935;28;20044;-80
2024/04/05 09:17:59;;;;;;;13.23;2.25;;;17.90;97.60;;;22.11;50.10;99390.78;5092727;28;20048;-81
2024/04/05 09:20:30;;;;;;;17.45;2.72;;;18.10;96.40;;;22.16;49.54;99388.41;5092995;28;20056;-80
2024/04/05 09:23:01;;;;;;;21.58;2.60;;;18.10;96.10;;;22.26;49.41;99387.38;5092301;28;20493;-81
2024/04/05 09:25:31;;;;;;;14.60;2.38;;;18.10;95.50;;;22.20;49.25;99395.06;5093994;28;20132;-81
2024/04/05 09:28:06;;;;;;;11.20;2.25;;;17.90;96.10;;;22.13;49.34;99387.94;5096950;28;20457;-79
2024/04/05 09:30:35;;;;;;;19.05;3.53;;;17.80;96.70;;;22.15;49.33;99386.78;5097936;28;20048;-82
2024/04/05 09:33:02;;;;;;;16.65;3.25;;;17.80;96.40;;;22.17;49.68;99389.25;5082095;28;20075;-81
2024/04/05 09:35:31;;;;;;;15.45;2.80;;;18.00;97.20;;;;;;5085247;28;20890;-80
2024/04/05 09:37:58;;;;;;;11.57;2.20;;;18.40;94.70;;;22.46;49.37;99378.75;5055555;28;20083;-80
2024/04/05 09:40:26;;;;;;;17.23;3.08;;;18.60;94.00;;;22.58;48.64;99390.69;5058318;28;20049;-80
2024/04/05 09:42:54;;;;;;;10.77;2.30;;;18.70;93.30;;;22.75;48.16;99386.09;5069684;28;20152;-81
2024/04/05 09:45:23;;;;;;;13.85;2.65;;;18.90;92.00;;;22.87;48.07;99390.00;5054546;28;20546;-81
2024/04/05 09:47:50;;;;;;;15.30;3.35;;;19.00;91.00;;;22.98;47.49;99394.09;5074689;28;20553;-81
2024/04/05 09:50:18;;;;;;;17.05;4.10;;;19.30;90.70;;;23.11;47.86;99405.00;5058335;28;20045;-81
2024/04/05 09:52:46;;;;;;;12.20;2.75;;;19.30;90.90;;;23.20;47.74;99398.56;5074964;28;20076;-80
2024/04/05 09:55:16;;;;;;;12.13;2.50;;;19.50;90.00;;;23.36;47.11;99409.09;5091614;28;20075;-81
2024/04/05 09:57:45;;;;;;;17.00;3.30;;;19.70;89.60;;;23.55;46.99;99407.75;5111993;28;20497;-80
2024/04/05 10:00:21;;;;;;;14.65;2.63;;;20.00;87.10;;;23.63;46.24;99402.34;5078396;28;20127;-81
2024/04/05 10:02:51;;;;;;;16.92;3.25;;;20.00;87.30;;;23.77;46.16;99401.53;5094789;28;20047;-80
2024/04/05 10:05:27;;;;;;;13.40;2.97;;;20.10;86.90;;;23.76;45.85;99403.38;5095491;28;20109;-80
2024/04/05 10:07:54;;;;;;;10.77;2.13;;;19.60;87.70;;;23.74;45.92;99402.69;5095543;28;20055;-80
2024/04/05 10:10:32;;;;;;;14.20;3.15;;;19.60;87.40;;;23.71;46.41;99408.44;5095312;28;20048;-81
2024/04/05 10:13:10;;;;;;;11.27;2.40;;;19.70;88.60;;;23.73;46.30;99419.78;5087205;28;20065;-81
2024/04/05 10:15:52;;;;;;;13.70;2.78;;;19.80;86.90;;;23.67;46.06;99422.34;5071144;28;20045;-80